Time;durP1;ratioP1;P1;durP2;ratioP2;P2;SDS_P1;SDS_P2;PMS_P1;PMS_P2;Temp;Humidity;BMP_temperature;BMP_pressure;BME280_temperature;BME280_humidity;BME280_pressure;Samples;Min_cycle;Max_cycle;Signal;HPM_P1;HPM_P2
2022/11/13 00:01:20;;;;;;;17.92;16.05;;;6.40;99.90;;;;;;4948301;29;20047;-78
2022/11/13 00:04:05;;;;;;;20.42;18.23;;;6.40;99.90;;;;;;4933781;29;20113;-77
2022/11/13 00:06:49;;;;;;;16.33;14.75;;;6.40;99.90;;;;;;4948273;29;20460;-77
2022/11/13 00:09:34;;;;;;;29.05;17.00;;;6.30;99.90;;;;;;4948079;29;20047;-77
2022/11/13 00:12:18;;;;;;;16.90;15.18;;;6.30;99.90;;;;;;4929126;29;20058;-77
2022/11/13 00:15:04;;;;;;;21.77;16.60;;;6.30;99.90;;;;;;4928953;29;20051;-77
2022/11/13 00:17:48;;;;;;;18.38;16.70;;;6.30;99.90;;;;;;4928108;29;20109;-77
2022/11/13 00:20:34;;;;;;;17.63;14.85;;;6.30;99.90;;;;;;4929048;29;20051;-77
2022/11/13 00:23:18;;;;;;;16.48;14.77;;;6.30;99.90;;;;;;4931232;29;20048;-77
2022/11/13 00:26:08;;;;;;;19.40;15.30;;;6.20;99.90;;;;;;4948111;29;20519;-76
2022/11/13 00:28:54;;;;;;;17.70;14.00;;;6.20;99.90;;;;;;4933577;29;20051;-77
2022/11/13 00:31:39;;;;;;;18.85;15.07;;;6.20;99.90;;;;;;4948028;29;20103;-76
2022/11/13 00:34:23;;;;;;;18.30;12.65;;;6.20;99.90;;;;;;4933373;29;20051;-77
2022/11/13 00:37:08;;;;;;;15.65;13.43;;;6.20;99.90;;;;;;4934258;29;20051;-77
2022/11/13 00:39:52;;;;;;;16.30;13.48;;;6.10;99.90;;;;;;4950591;29;20142;-77
2022/11/13 00:42:36;;;;;;;14.57;13.07;;;6.10;99.90;;;;;;4951211;29;20043;-77
2022/11/13 00:45:21;;;;;;;18.40;15.43;;;6.10;99.90;;;;;;4951326;29;20068;-76
2022/11/13 00:48:05;;;;;;;17.63;14.10;;;6.00;99.90;;;;;;4951251;29;20051;-77
2022/11/13 00:50:50;;;;;;;16.83;13.13;;;6.00;99.90;;;;;;4951312;29;20070;-77
2022/11/13 00:53:35;;;;;;;14.90;12.63;;;6.00;99.90;;;;;;4936348;29;20071;-77
2022/11/13 00:56:19;;;;;;;14.90;13.32;;;5.80;99.90;;;;;;4951266;29;20070;-77
2022/11/13 00:59:04;;;;;;;18.63;15.65;;;5.70;99.90;;;;;;4951171;29;20035;-76
2022/11/13 01:01:48;;;;;;;15.68;13.45;;;5.60;99.90;;;;;;4951167;29;20120;-77
2022/11/13 01:04:33;;;;;;;15.10;11.05;;;5.60;99.90;;;;;;4951043;29;20136;-77
2022/11/13 01:07:18;;;;;;;13.85;10.98;;;5.50;99.90;;;;;;4936718;29;20118;-77
2022/11/13 01:10:06;;;;;;;14.98;12.10;;;5.50;99.90;;;;;;4950744;29;20397;-77
2022/11/13 01:12:51;;;;;;;19.15;12.13;;;5.40;99.90;;;;;;4950897;29;20080;-77
2022/11/13 01:15:38;;;;;;;15.68;11.68;;;5.30;99.90;;;;;;4936326;29;20050;-77
2022/11/13 01:18:23;;;;;;;12.35;11.25;;;5.40;99.90;;;;;;4950702;29;20104;-79
2022/11/13 01:21:12;;;;;;;15.43;12.10;;;5.30;99.90;;;;;;4950890;29;20047;-77
2022/11/13 01:23:57;;;;;;;13.90;10.77;;;5.20;99.90;;;;;;4931769;29;20039;-76
2022/11/13 01:26:41;;;;;;;17.05;12.82;;;5.20;99.90;;;;;;4943203;29;20071;-77
2022/11/13 01:29:26;;;;;;;15.43;13.82;;;5.10;99.90;;;;;;4950604;29;20070;-77
2022/11/13 01:32:10;;;;;;;15.98;14.07;;;5.10;99.90;;;;;;4950430;29;20061;-77
2022/11/13 01:34:55;;;;;;;12.80;11.52;;;5.10;99.90;;;;;;4950457;29;20071;-77
2022/11/13 01:37:40;;;;;;;12.98;11.57;;;5.00;99.90;;;;;;4950318;29;20055;-77
2022/11/13 01:40:24;;;;;;;16.55;11.88;;;5.00;99.90;;;;;;4950338;29;20058;-77
2022/11/13 01:43:32;;;;;;;13.15;11.90;;;5.00;99.90;;;;;;4950369;29;20067;-77
2022/11/13 01:46:22;;;;;;;16.80;11.55;;;5.00;99.90;;;;;;4950289;29;20054;-77
2022/11/13 01:49:07;;;;;;;;;;;5.00;99.90;;;;;;4950137;29;20054;-77
2022/11/13 01:51:58;;;;;;;13.55;11.23;;;4.90;99.90;;;;;;4935792;29;19934;-77
2022/11/13 01:54:47;;;;;;;13.23;11.90;;;4.80;99.90;;;;;;4950080;29;20042;-77
2022/11/13 01:57:32;;;;;;;14.13;12.57;;;4.70;99.90;;;;;;4950274;29;20074;-77
2022/11/13 02:00:16;;;;;;;16.88;12.80;;;4.70;99.90;;;;;;4950023;29;20059;-77
2022/11/13 02:03:01;;;;;;;11.75;10.23;;;4.70;99.90;;;;;;4949413;29;20046;-76
2022/11/13 02:05:45;;;;;;;12.20;10.95;;;4.60;99.90;;;;;;4935485;29;20093;-77
2022/11/13 02:08:30;;;;;;;12.95;11.65;;;4.60;99.90;;;;;;4949865;29;20075;-77
2022/11/13 02:11:15;;;;;;;21.35;12.60;;;4.50;99.90;;;;;;4950072;29;20120;-77
2022/11/13 02:14:00;;;;;;;15.38;13.05;;;4.60;99.90;;;;;;4949509;29;20081;-77
2022/11/13 02:16:47;;;;;;;13.82;12.40;;;4.50;99.90;;;;;;4949720;29;20043;-77
2022/11/13 02:19:37;;;;;;;12.40;10.77;;;4.50;99.90;;;;;;4949520;29;20047;-77
2022/11/13 02:22:51;;;;;;;13.52;12.20;;;4.50;99.90;;;;;;4949636;29;20039;-77
2022/11/13 02:25:37;;;;;;;14.23;12.48;;;4.50;99.90;;;;;;4949646;29;20043;-77
2022/11/13 02:28:21;;;;;;;16.77;13.82;;;4.50;99.90;;;;;;4949943;29;20034;-76
2022/11/13 02:31:11;;;;;;;13.55;11.38;;;4.40;99.90;;;;;;4949271;29;20098;-76
2022/11/13 02:33:55;;;;;;;14.55;12.85;;;4.50;99.90;;;;;;4935140;29;20075;-76
2022/11/13 02:36:40;;;;;;;14.13;12.73;;;4.40;99.90;;;;;;4949692;29;20047;-77
2022/11/13 02:39:24;;;;;;;13.35;11.93;;;4.30;99.90;;;;;;4949221;29;20065;-77
2022/11/13 02:42:09;;;;;;;21.33;14.10;;;4.30;99.90;;;;;;4949321;29;20063;-76
2022/11/13 02:44:53;;;;;;;18.95;13.00;;;4.40;99.90;;;;;;4935162;29;20098;-77
2022/11/13 02:47:37;;;;;;;13.18;10.63;;;4.40;99.90;;;;;;4948985;29;20047;-77
2022/11/13 02:50:21;;;;;;;24.30;15.02;;;4.50;99.90;;;;;;4949263;29;20078;-77
2022/11/13 02:53:06;;;;;;;12.65;11.50;;;4.60;99.90;;;;;;4949124;29;20050;-77
2022/11/13 02:55:50;;;;;;;12.30;11.02;;;4.60;99.90;;;;;;4949280;29;20171;-77
2022/11/13 02:58:35;;;;;;;14.75;11.68;;;4.60;99.90;;;;;;4949100;29;20035;-76
2022/11/13 03:01:19;;;;;;;14.75;11.35;;;4.70;99.90;;;;;;4933630;29;20448;-77
2022/11/13 03:04:03;;;;;;;14.07;12.55;;;4.90;99.90;;;;;;4948863;29;20090;-77
2022/11/13 03:06:47;;;;;;;11.70;10.50;;;4.90;99.90;;;;;;4948770;29;20070;-76
2022/11/13 03:09:31;;;;;;;11.65;10.45;;;4.80;99.90;;;;;;4949043;29;20106;-77
2022/11/13 03:12:16;;;;;;;15.23;13.38;;;4.80;99.90;;;;;;4948878;29;20050;-76
2022/11/13 03:15:00;;;;;;;12.10;10.95;;;4.90;99.90;;;;;;4948955;29;20409;-76
2022/11/13 03:17:44;;;;;;;13.15;11.75;;;5.00;99.90;;;;;;4948156;29;20087;-77
2022/11/13 03:20:28;;;;;;;14.38;10.50;;;5.00;99.90;;;;;;4948368;29;20047;-77
2022/11/13 03:23:12;;;;;;;13.32;11.98;;;5.00;99.90;;;;;;4948786;29;20062;-76
2022/11/13 03:26:03;;;;;;;13.77;12.38;;;4.90;99.90;;;;;;4948822;29;20418;-76
2022/11/13 03:28:48;;;;;;;11.55;10.45;;;5.00;99.90;;;;;;4948900;29;20050;-77
2022/11/13 03:31:33;;;;;;;13.13;11.05;;;5.00;99.90;;;;;;4934174;29;20054;-76
2022/11/13 03:34:17;;;;;;;11.50;10.32;;;5.00;99.90;;;;;;4948338;29;20405;-77
2022/11/13 03:37:01;;;;;;;13.90;11.70;;;5.00;99.90;;;;;;4948707;29;20038;-76
2022/11/13 03:39:45;;;;;;;10.82;9.85;;;5.00;99.90;;;;;;4948591;29;20053;-76
2022/11/13 03:42:30;;;;;;;11.15;10.05;;;5.00;99.90;;;;;;4948552;29;20042;-77
2022/11/13 03:45:14;;;;;;;14.30;10.88;;;5.00;99.90;;;;;;4948466;29;20047;-77
2022/11/13 03:47:59;;;;;;;13.15;10.63;;;5.00;99.90;;;;;;4934260;29;20047;-76
2022/11/13 03:50:48;;;;;;;11.50;9.65;;;4.90;99.90;;;;;;4948195;29;20066;-77
2022/11/13 03:53:33;;;;;;;10.23;9.30;;;4.90;99.90;;;;;;4934346;29;20071;-76
2022/11/13 03:56:17;;;;;;;10.45;9.45;;;4.80;99.90;;;;;;4948564;29;20050;-77
2022/11/13 03:59:01;;;;;;;13.00;11.77;;;4.70;99.90;;;;;;4934138;29;20432;-77
2022/11/13 04:01:45;;;;;;;16.25;9.90;;;4.70;99.90;;;;;;4948428;29;20054;-76
2022/11/13 04:04:30;;;;;;;16.30;9.82;;;4.70;99.90;;;;;;4948379;29;20051;-77
2022/11/13 04:07:14;;;;;;;14.88;11.13;;;4.70;99.90;;;;;;4948422;29;20076;-77
2022/11/13 04:09:58;;;;;;;12.45;9.85;;;4.70;99.90;;;;;;4948358;29;20050;-77
2022/11/13 04:12:43;;;;;;;11.07;10.15;;;4.80;99.90;;;;;;4930716;29;20047;-76
2022/11/13 04:15:28;;;;;;;9.80;8.90;;;4.70;99.90;;;;;;4933127;29;20108;-76
2022/11/13 04:18:12;;;;;;;10.48;8.73;;;4.70;99.90;;;;;;4932989;29;20043;-76
2022/11/13 04:21:00;;;;;;;11.23;10.02;;;4.60;99.90;;;;;;4932815;29;20103;-76
2022/11/13 04:23:45;;;;;;;14.05;9.80;;;4.40;99.90;;;;;;4932901;29;20047;-77
2022/11/13 04:26:30;;;;;;;9.25;8.35;;;4.30;99.90;;;;;;4932948;29;20055;-77
2022/11/13 04:29:14;;;;;;;9.60;8.70;;;4.20;99.90;;;;;;4932826;29;20056;-76
2022/11/13 04:31:58;;;;;;;10.48;7.80;;;4.10;99.90;;;;;;4932590;29;20204;-77
2022/11/13 04:34:42;;;;;;;11.63;10.43;;;4.00;99.90;;;;;;4945270;29;20047;-77
2022/11/13 04:37:26;;;;;;;10.82;9.00;;;4.00;99.90;;;;;;4951677;29;20039;-76
2022/11/13 04:40:11;;;;;;;9.77;8.88;;;3.90;99.90;;;;;;4951411;29;20059;-76
2022/11/13 04:42:56;;;;;;;11.65;9.05;;;3.80;99.90;;;;;;4951409;29;20042;-77
2022/11/13 04:45:40;;;;;;;11.80;10.20;;;3.80;99.90;;;;;;4951413;29;20050;-76
2022/11/13 04:48:24;;;;;;;11.13;8.35;;;3.80;99.90;;;;;;4932603;29;20127;-77
2022/11/13 04:51:08;;;;;;;14.57;10.13;;;3.80;99.90;;;;;;4917857;29;20055;-76
2022/11/13 04:53:53;;;;;;;9.80;8.88;;;3.80;99.90;;;;;;4932106;29;20047;-76
2022/11/13 04:56:38;;;;;;;9.35;8.40;;;3.80;99.90;;;;;;4932267;29;20112;-77
2022/11/13 04:59:23;;;;;;;9.35;8.55;;;3.70;99.90;;;;;;4932146;29;20055;-76
2022/11/13 05:02:07;;;;;;;8.27;7.45;;;3.70;99.90;;;;;;4944295;29;20151;-76
2022/11/13 05:04:52;;;;;;;11.75;8.75;;;3.60;99.90;;;;;;4951032;29;20046;-76
2022/11/13 05:07:36;;;;;;;13.75;10.80;;;3.60;99.90;;;;;;4951055;29;20099;-76
2022/11/13 05:10:21;;;;;;;13.85;8.90;;;3.50;99.90;;;;;;4950970;29;20099;-77
2022/11/13 05:13:05;;;;;;;8.30;7.60;;;3.50;99.90;;;;;;4931770;29;20096;-76
2022/11/13 05:15:49;;;;;;;8.65;7.95;;;3.40;99.90;;;;;;4918770;29;20112;-76
2022/11/13 05:18:36;;;;;;;9.85;8.95;;;3.40;99.90;;;;;;4950517;29;20068;-77
2022/11/13 05:21:20;;;;;;;9.13;8.15;;;3.30;99.90;;;;;;4950649;29;20063;-77
2022/11/13 05:24:05;;;;;;;9.90;8.98;;;3.30;99.90;;;;;;4949643;29;20070;-77
2022/11/13 05:26:49;;;;;;;11.02;8.85;;;3.30;99.90;;;;;;4936286;29;20043;-76
2022/11/13 05:29:33;;;;;;;10.38;8.77;;;3.20;99.90;;;;;;4950569;29;20100;-77
2022/11/13 05:32:18;;;;;;;10.40;9.27;;;3.10;99.90;;;;;;4935882;29;20400;-77
2022/11/13 05:35:03;;;;;;;12.27;9.10;;;3.10;99.90;;;;;;4950380;29;20072;-76
2022/11/13 05:37:47;;;;;;;10.55;9.55;;;3.10;99.90;;;;;;4950416;29;20067;-77
2022/11/13 05:40:31;;;;;;;10.13;9.13;;;3.00;99.90;;;;;;4950367;29;20063;-76
2022/11/13 05:43:16;;;;;;;10.45;9.45;;;3.00;99.90;;;;;;4950307;29;20042;-77
2022/11/13 05:46:06;;;;;;;9.73;8.25;;;3.10;99.90;;;;;;4935554;29;20046;-77
2022/11/13 05:48:59;;;;;;;11.48;10.35;;;3.10;99.90;;;;;;4950396;29;20573;-76
2022/11/13 05:51:43;;;;;;;12.52;10.77;;;3.20;99.90;;;;;;4950466;29;20485;-76
2022/11/13 05:54:27;;;;;;;12.85;10.60;;;3.20;99.90;;;;;;4950233;29;20043;-76
2022/11/13 05:57:12;;;;;;;9.32;8.43;;;3.10;99.90;;;;;;4950489;29;20046;-77
2022/11/13 05:59:56;;;;;;;10.38;9.43;;;3.10;99.90;;;;;;4922264;29;20068;-75
2022/11/13 06:02:41;;;;;;;11.05;9.88;;;3.00;99.90;;;;;;4949578;29;20087;-75
2022/11/13 06:05:25;;;;;;;12.25;8.10;;;3.00;99.90;;;;;;4949423;29;20074;-75
2022/11/13 06:08:09;;;;;;;10.68;9.55;;;2.90;99.90;;;;;;4950142;29;20062;-77
2022/11/13 06:10:59;;;;;;;10.57;9.57;;;2.90;99.90;;;;;;4950248;29;20132;-78
2022/11/13 06:13:44;;;;;;;;;;;2.90;99.90;;;;;;4951910;29;20061;-75
2022/11/13 06:16:34;;;;;;;11.27;10.02;;;2.90;99.90;;;;;;4952509;28;19930;-75
2022/11/13 06:19:18;;;;;;;13.15;9.95;;;2.80;99.90;;;;;;4931888;29;20031;-77
2022/11/13 06:22:02;;;;;;;10.18;9.45;;;2.80;99.90;;;;;;4949239;29;20042;-77
2022/11/13 06:24:46;;;;;;;9.48;8.52;;;2.70;99.90;;;;;;4955164;29;20062;-77
2022/11/13 06:27:31;;;;;;;10.50;9.50;;;2.70;99.90;;;;;;4947122;29;20103;-76
2022/11/13 06:30:16;;;;;;;11.20;9.70;;;2.60;99.90;;;;;;4934884;29;20055;-77
2022/11/13 06:33:00;;;;;;;9.68;8.88;;;2.60;99.90;;;;;;4953967;29;20078;-77
2022/11/13 06:35:45;;;;;;;11.25;10.10;;;2.60;99.90;;;;;;4968050;28;20034;-77
2022/11/13 06:38:31;;;;;;;11.50;9.88;;;2.60;99.90;;;;;;4955098;29;20094;-77
2022/11/13 06:41:19;;;;;;;9.73;8.73;;;2.70;99.90;;;;;;4931762;29;20119;-77
2022/11/13 06:44:04;;;;;;;9.82;8.98;;;2.60;99.90;;;;;;4967414;29;20081;-77
2022/11/13 06:46:48;;;;;;;10.45;9.38;;;2.60;99.90;;;;;;4935096;29;20049;-77
2022/11/13 06:49:33;;;;;;;12.10;9.68;;;2.60;99.90;;;;;;4939435;29;20098;-75
2022/11/13 06:52:19;;;;;;;11.25;8.27;;;2.50;99.90;;;;;;4940471;29;20047;-77
2022/11/13 06:55:03;;;;;;;11.10;9.63;;;2.50;99.90;;;;;;4968209;29;20058;-77
2022/11/13 06:57:48;;;;;;;9.02;8.23;;;2.50;99.90;;;;;;4967850;29;20077;-76
2022/11/13 07:00:32;;;;;;;9.07;8.25;;;2.50;99.90;;;;;;4968035;29;20038;-76
2022/11/13 07:03:25;;;;;;;12.30;9.93;;;2.50;99.90;;;;;;4947310;29;20095;-77
2022/11/13 07:06:13;;;;;;;11.50;9.38;;;2.60;99.90;;;;;;4964825;29;20795;-76
2022/11/13 07:08:57;;;;;;;16.52;14.82;;;3.20;99.90;;;;;;4953759;29;20042;-77
2022/11/13 07:11:42;;;;;;;13.05;11.73;;;3.40;99.90;;;;;;4950197;29;20046;-76
2022/11/13 07:14:27;;;;;;;10.23;9.35;;;3.40;99.90;;;;;;4964910;29;20046;-76
2022/11/13 07:17:11;;;;;;;8.90;8.10;;;3.20;99.90;;;;;;4967911;29;20120;-77
2022/11/13 07:19:55;;;;;;;9.63;8.65;;;3.20;99.90;;;;;;4967558;29;20062;-76
2022/11/13 07:22:39;;;;;;;9.13;8.43;;;3.10;99.90;;;;;;4967011;29;20047;-77
2022/11/13 07:25:24;;;;;;;10.20;8.98;;;3.00;99.90;;;;;;4935922;29;20063;-77
2022/11/13 07:28:08;;;;;;;9.50;8.27;;;3.00;99.90;;;;;;4947936;29;20058;-77
2022/11/13 07:30:56;;;;;;;10.93;9.70;;;3.20;99.90;;;;;;4962785;29;20095;-76
2022/11/13 07:33:41;;;;;;;13.70;10.02;;;3.30;99.90;;;;;;4951351;29;20046;-77
2022/11/13 07:36:25;;;;;;;12.38;10.60;;;3.40;99.90;;;;;;4952771;29;20062;-76
2022/11/13 07:39:10;;;;;;;13.55;12.10;;;3.70;99.90;;;;;;4967388;29;20046;-77
2022/11/13 07:41:54;;;;;;;16.92;15.07;;;4.10;99.90;;;;;;4967406;29;20037;-76
2022/11/13 07:44:38;;;;;;;14.52;13.02;;;4.60;99.90;;;;;;4967798;29;20045;-76
2022/11/13 07:47:23;;;;;;;12.27;11.05;;;5.00;99.90;;;;;;4954341;29;20062;-76
2022/11/13 07:50:08;;;;;;;12.68;11.15;;;5.10;99.90;;;;;;4958152;29;20067;-77
2022/11/13 07:52:57;;;;;;;14.48;12.93;;;5.30;99.90;;;;;;4967465;29;20050;-76
2022/11/13 07:55:42;;;;;;;14.82;13.32;;;5.90;99.90;;;;;;4952971;29;20106;-77
2022/11/13 07:58:26;;;;;;;15.02;11.35;;;7.40;99.90;;;;;;4938511;29;20146;-76
2022/11/13 08:01:10;;;;;;;10.70;8.20;;;9.80;99.90;;;;;;4938170;29;20119;-76
2022/11/13 08:03:54;;;;;;;8.48;7.38;;;12.10;99.90;;;;;;4952580;29;20122;-76
2022/11/13 08:06:38;;;;;;;7.32;5.43;;;13.80;99.90;;;;;;4952254;29;20050;-77
2022/11/13 08:09:23;;;;;;;6.05;5.50;;;15.20;99.90;;;;;;4946222;29;20046;-77
2022/11/13 08:12:07;;;;;;;7.68;5.65;;;16.50;99.90;;;;;;4952056;29;20055;-77
2022/11/13 08:14:52;;;;;;;7.00;5.25;;;18.20;99.90;;;;;;4952079;29;20050;-75
2022/11/13 08:17:36;;;;;;;13.70;6.03;;;19.60;99.90;;;;;;4937738;29;20042;-77
2022/11/13 08:20:20;;;;;;;5.93;4.70;;;20.50;99.90;;;;;;4951946;29;20097;-76
2022/11/13 08:23:05;;;;;;;5.20;4.43;;;21.30;99.90;;;;;;4951731;29;20046;-76
2022/11/13 08:25:49;;;;;;;5.45;4.32;;;22.20;96.70;;;;;;4932852;29;20553;-76
2022/11/13 08:28:34;;;;;;;5.28;4.75;;;22.70;96.60;;;;;;4932740;29;20035;-76
2022/11/13 08:31:19;;;;;;;5.25;4.75;;;22.70;95.40;;;;;;4918179;29;20076;-74
2022/11/13 08:34:03;;;;;;;4.97;4.47;;;23.00;96.70;;;;;;4932345;29;20074;-74
2022/11/13 08:36:47;;;;;;;10.05;4.80;;;24.30;95.90;;;;;;4918270;29;20047;-76
2022/11/13 08:39:34;;;;;;;5.57;4.53;;;24.50;94.40;;;;;;4943466;29;20090;-76
2022/11/13 08:42:18;;;;;;;5.07;4.35;;;24.20;92.50;;;;;;4951552;29;20059;-76
2022/11/13 08:45:04;;;;;;;4.28;3.88;;;22.60;92.50;;;;;;4951349;29;20071;-75
2022/11/13 08:48:00;;;;;;;4.93;4.47;;;23.50;93.80;;;;;;4925503;29;20080;-76
2022/11/13 08:50:44;;;;;;;3.95;3.58;;;23.40;94.30;;;;;;4951120;29;20130;-77
2022/11/13 08:53:29;;;;;;;5.05;4.65;;;24.00;92.20;;;;;;4950952;29;20051;-76
2022/11/13 08:56:14;;;;;;;7.70;4.47;;;23.90;92.00;;;;;;4951256;29;20046;-75
2022/11/13 08:58:58;;;;;;;5.47;4.03;;;24.30;91.80;;;;;;4936398;29;20039;-76
2022/11/13 09:01:42;;;;;;;4.63;4.15;;;23.40;91.60;;;;;;4950970;29;20067;-76
2022/11/13 09:04:27;;;;;;;7.50;3.80;;;24.50;91.20;;;;;;4951122;29;20412;-77
2022/11/13 09:07:11;;;;;;;4.72;4.28;;;23.90;92.10;;;;;;4936813;29;20079;-77
2022/11/13 09:09:56;;;;;;;5.28;4.82;;;24.50;91.70;;;;;;4951324;29;20049;-76
2022/11/13 09:12:40;;;;;;;5.57;3.55;;;24.40;91.60;;;;;;4930726;29;20043;-77
2022/11/13 09:15:25;;;;;;;6.47;4.00;;;25.20;91.00;;;;;;4944940;29;20050;-77
2022/11/13 09:18:09;;;;;;;4.72;4.35;;;25.20;90.90;;;;;;4950833;29;20070;-76
2022/11/13 09:20:54;;;;;;;5.13;4.65;;;24.70;90.20;;;;;;4950804;29;20124;-77
2022/11/13 09:23:39;;;;;;;5.22;4.50;;;24.40;90.60;;;;;;4950857;29;20098;-76
2022/11/13 09:26:23;;;;;;;5.63;3.83;;;24.30;90.90;;;;;;4950738;29;20055;-77
2022/11/13 09:29:09;;;;;;;6.43;3.65;;;23.70;91.00;;;;;;4936008;29;20071;-76
2022/11/13 09:31:54;;;;;;;4.72;4.22;;;24.50;90.80;;;;;;4950572;29;20047;-77
2022/11/13 09:34:38;;;;;;;5.68;3.65;;;23.90;90.00;;;;;;4950390;29;20054;-76
2022/11/13 09:37:22;;;;;;;4.85;4.40;;;21.50;92.40;;;;;;4935231;29;20784;-76
2022/11/13 09:40:16;;;;;;;3.90;3.60;;;22.10;91.20;;;;;;4948743;29;20138;-76
2022/11/13 09:43:03;;;;;;;4.88;4.40;;;21.70;92.10;;;;;;4954685;29;20067;-75
2022/11/13 09:45:50;;;;;;;4.00;3.70;;;21.70;92.10;;;;;;4931351;29;20068;-75
2022/11/13 09:48:39;;;;;;;5.38;4.40;;;23.20;91.90;;;;;;4931099;29;20096;-75
2022/11/13 09:51:25;;;;;;;5.55;3.55;;;24.80;91.10;;;;;;4931210;29;20062;-76
2022/11/13 09:54:13;;;;;;;4.82;3.67;;;24.90;90.40;;;;;;4932266;29;20056;-76
2022/11/13 09:57:00;;;;;;;4.40;4.10;;;25.20;90.60;;;;;;4948816;29;20066;-75
2022/11/13 10:00:01;;;;;;;6.93;4.55;;;26.50;89.50;;;;;;4949143;29;20043;-75
2022/11/13 10:03:12;;;;;;;8.85;4.47;;;26.90;89.30;;;;;;4948893;29;20049;-75
2022/11/13 10:06:13;;;;;;;4.07;3.75;;;27.50;87.30;;;;;;4925273;29;20068;-75
2022/11/13 10:09:02;;;;;;;3.58;3.28;;;28.70;86.30;;;;;;4949475;29;20071;-75
2022/11/13 10:11:58;;;;;;;4.85;4.25;;;29.20;84.80;;;;;;4948773;29;20047;-75
2022/11/13 10:14:48;;;;;;;5.10;4.60;;;29.60;85.40;;;;;;4949270;29;20039;-76
2022/11/13 10:17:44;;;;;;;5.50;4.32;;;29.10;83.40;;;;;;4949511;29;20074;-75
2022/11/13 10:20:35;;;;;;;7.55;4.68;;;27.30;84.70;;;;;;4952580;29;20039;-75
2022/11/13 10:23:29;;;;;;;4.45;4.05;;;28.50;84.80;;;;;;4949479;29;20050;-75
2022/11/13 10:26:21;;;;;;;4.00;3.60;;;28.80;84.20;;;;;;4943534;29;20042;-75
2022/11/13 10:29:11;;;;;;;4.65;4.25;;;28.90;84.10;;;;;;4948489;29;20046;-76
2022/11/13 10:31:57;;;;;;;3.92;3.63;;;28.00;84.10;;;;;;4948018;29;20051;-75
2022/11/13 10:35:03;;;;;;;4.10;3.80;;;28.90;84.80;;;;;;4935676;29;20047;-75
2022/11/13 10:38:14;;;;;;;6.35;4.53;;;28.30;83.60;;;;;;4915181;29;20047;-75
2022/11/13 10:41:14;;;;;;;3.92;3.63;;;27.80;85.00;;;;;;4944650;29;20078;-76
2022/11/13 10:44:16;;;;;;;6.50;4.88;;;27.60;84.10;;;;;;4934707;29;20102;-75
2022/11/13 10:47:14;;;;;;;6.38;5.15;;;27.20;85.70;;;;;;4939107;29;20038;-75
2022/11/13 10:50:18;;;;;;;4.43;4.03;;;26.30;85.20;;;;;;4948571;29;20038;-76
2022/11/13 10:53:02;;;;;;;4.45;4.05;;;26.00;87.20;;;;;;4948329;29;20042;-76
2022/11/13 10:55:50;;;;;;;4.65;4.05;;;26.10;87.40;;;;;;4919353;29;20054;-75
2022/11/13 10:58:34;;;;;;;6.18;4.45;;;25.60;87.80;;;;;;4933970;29;20552;-75
2022/11/13 11:01:22;;;;;;;8.60;4.65;;;25.90;86.20;;;;;;4948641;29;20157;-76
2022/11/13 11:04:19;;;;;;;4.68;4.00;;;25.40;86.90;;;;;;4949555;29;20075;-76
2022/11/13 11:07:16;;;;;;;4.95;3.75;;;25.30;87.50;;;;;;4934142;29;20050;-75
2022/11/13 11:10:00;;;;;;;4.25;3.80;;;25.20;88.10;;;;;;4949034;29;20042;-75
2022/11/13 11:12:54;;;;;;;4.50;4.10;;;24.10;87.50;;;;;;4955411;29;20405;-75
2022/11/13 11:15:45;;;;;;;4.63;4.28;;;23.40;88.40;;;;;;4935402;29;20091;-76
2022/11/13 11:18:38;;;;;;;7.93;4.38;;;22.70;90.10;;;;;;4950377;29;20087;-76
2022/11/13 11:21:29;;;;;;;9.30;5.03;;;22.40;90.20;;;;;;4933588;29;20071;-76
2022/11/13 11:24:27;;;;;;;8.00;4.80;;;21.70;90.50;;;;;;4936090;29;20087;-75
2022/11/13 11:27:27;;;;;;;4.75;4.35;;;22.20;91.40;;;;;;4934026;29;20488;-75
2022/11/13 11:30:20;;;;;;;4.20;3.80;;;21.60;90.80;;;;;;4948455;29;20042;-75
2022/11/13 11:33:28;;;;;;;6.63;5.25;;;22.20;91.10;;;;;;4933987;29;20074;-75
2022/11/13 11:36:43;;;;;;;6.45;4.40;;;21.70;90.80;;;;;;4939277;29;20099;-75
2022/11/13 11:39:34;;;;;;;5.07;4.60;;;21.50;90.90;;;;;;4924515;29;20102;-75
2022/11/13 11:42:28;;;;;;;6.57;3.83;;;21.30;91.40;;;;;;4948144;29;20079;-75
2022/11/13 11:45:35;;;;;;;5.88;4.80;;;20.00;92.40;;;;;;4948280;29;20060;-76
2022/11/13 11:48:23;;;;;;;3.95;3.55;;;20.70;92.00;;;;;;4933944;29;20054;-75
2022/11/13 11:51:14;;;;;;;3.25;3.05;;;20.30;92.30;;;;;;4947927;29;20044;-75
2022/11/13 11:54:14;;;;;;;3.38;3.08;;;20.10;92.20;;;;;;4948074;29;20047;-75
2022/11/13 11:57:09;;;;;;;6.70;3.60;;;19.90;92.40;;;;;;4936897;29;20053;-75
2022/11/13 12:00:05;;;;;;;5.20;2.42;;;19.50;92.60;;;;;;4935150;29;20524;-75
2022/11/13 12:03:12;;;;;;;6.68;2.70;;;18.80;93.70;;;;;;4947618;29;20051;-75
2022/11/13 12:06:34;;;;;;;2.75;2.55;;;19.00;93.20;;;;;;4938938;29;20042;-75
2022/11/13 12:09:33;;;;;;;5.00;3.88;;;19.10;93.60;;;;;;4924078;29;20073;-75
2022/11/13 12:12:28;;;;;;;6.03;3.25;;;19.00;93.00;;;;;;4928064;29;20071;-75
2022/11/13 12:15:22;;;;;;;2.05;1.90;;;19.10;93.50;;;;;;4965667;29;21963;-77
2022/11/13 12:18:21;;;;;;;5.47;4.32;;;19.40;92.90;;;;;;4932879;29;21011;-78
2022/11/13 12:21:09;;;;;;;3.80;3.50;;;19.50;92.80;;;;;;4946224;29;20035;-77
2022/11/13 12:24:14;;;;;;;3.33;2.38;;;20.00;92.40;;;;;;4955297;29;20070;-76
2022/11/13 12:27:11;;;;;;;2.80;2.47;;;19.70;92.30;;;;;;4962846;29;20043;-76
2022/11/13 12:30:10;;;;;;;3.90;3.08;;;19.70;92.20;;;;;;4952375;29;20050;-77
2022/11/13 12:33:22;;;;;;;1.85;1.70;;;20.00;91.40;;;;;;4936929;29;20042;-76
2022/11/13 12:36:10;;;;;;;1.65;1.55;;;19.90;91.70;;;;;;4945249;29;20058;-77
2022/11/13 12:39:15;;;;;;;2.13;1.92;;;19.40;91.60;;;;;;4967102;29;20046;-75
2022/11/13 12:42:20;;;;;;;3.20;2.42;;;19.40;91.40;;;;;;4957259;29;20035;-77
2022/11/13 12:45:15;;;;;;;2.78;2.58;;;19.20;91.90;;;;;;4952479;29;20094;-77
2022/11/13 12:48:17;;;;;;;10.00;4.38;;;19.00;92.30;;;;;;4944408;29;20126;-76
2022/11/13 12:51:11;;;;;;;4.55;3.55;;;18.70;92.90;;;;;;4955480;29;20090;-78
2022/11/13 12:54:00;;;;;;;4.85;2.90;;;18.70;92.40;;;;;;4931777;29;20109;-77
2022/11/13 12:56:45;;;;;;;3.63;3.28;;;18.30;93.30;;;;;;4917819;29;20039;-77
2022/11/13 12:59:36;;;;;;;3.75;3.40;;;18.00;93.70;;;;;;4932074;29;20039;-77
2022/11/13 13:02:39;;;;;;;6.07;3.50;;;17.90;94.50;;;;;;4931896;29;20509;-76
2022/11/13 13:05:44;;;;;;;4.38;4.03;;;18.10;94.30;;;;;;4932059;29;20092;-76
2022/11/13 13:08:41;;;;;;;7.82;3.53;;;17.80;93.90;;;;;;4950275;29;20038;-77
2022/11/13 13:11:36;;;;;;;4.65;3.45;;;17.70;93.60;;;;;;4950764;29;20091;-76
2022/11/13 13:14:35;;;;;;;3.83;3.47;;;17.80;94.50;;;;;;4950686;29;20046;-77
2022/11/13 13:17:22;;;;;;;3.22;2.88;;;17.80;94.30;;;;;;4950835;29;20043;-77
2022/11/13 13:20:10;;;;;;;5.30;3.20;;;18.00;94.40;;;;;;4951098;29;20043;-77
2022/11/13 13:23:00;;;;;;;2.38;2.28;;;18.00;94.00;;;;;;4950751;29;20038;-76
2022/11/13 13:25:44;;;;;;;;;;;17.80;93.90;;;;;;4950071;29;20070;-77
2022/11/13 13:28:30;;;;;;;2.75;2.10;;;17.70;94.30;;;;;;4936145;29;19977;-77
2022/11/13 13:31:43;;;;;;;3.42;2.05;;;17.40;93.40;;;;;;4950738;29;20485;-77
2022/11/13 13:34:56;;;;;;;1.95;1.85;;;17.30;93.80;;;;;;4950236;29;20127;-77
2022/11/13 13:38:03;;;;;;;2.70;2.30;;;17.20;94.00;;;;;;4950408;29;20039;-76
2022/11/13 13:41:08;;;;;;;1.92;1.83;;;17.10;93.60;;;;;;4950171;29;20047;-77
2022/11/13 13:44:14;;;;;;;2.78;2.38;;;17.00;93.60;;;;;;4954608;29;20105;-77
2022/11/13 13:46:59;;;;;;;2.75;1.58;;;16.90;94.30;;;;;;4954747;29;20057;-76
2022/11/13 13:49:43;;;;;;;2.00;1.73;;;16.80;94.00;;;;;;4931242;29;20074;-75
2022/11/13 13:52:32;;;;;;;7.40;2.72;;;16.60;94.50;;;;;;4929792;29;20055;-76
2022/11/13 13:55:31;;;;;;;1.75;1.30;;;16.60;94.60;;;;;;4949563;29;20062;-76
2022/11/13 13:58:19;;;;;;;2.50;1.40;;;16.50;94.00;;;;;;4949923;29;20051;-76
2022/11/13 14:01:05;;;;;;;1.52;1.20;;;16.50;94.20;;;;;;4949869;29;20060;-76
2022/11/13 14:04:11;;;;;;;1.77;1.55;;;16.40;94.60;;;;;;4949811;29;20077;-76
2022/11/13 14:06:57;;;;;;;3.38;2.80;;;16.40;94.90;;;;;;4949689;29;20095;-76
2022/11/13 14:09:42;;;;;;;1.73;1.63;;;16.40;95.00;;;;;;4949847;29;20083;-75
2022/11/13 14:12:27;;;;;;;1.67;1.55;;;16.30;94.90;;;;;;4949519;29;20064;-76
2022/11/13 14:15:21;;;;;;;2.17;1.73;;;16.20;94.80;;;;;;4935036;29;20042;-76
2022/11/13 14:18:14;;;;;;;1.77;1.67;;;16.20;94.90;;;;;;4938345;29;20087;-77
2022/11/13 14:21:01;;;;;;;1.10;0.98;;;16.20;94.80;;;;;;4949596;29;20067;-76
2022/11/13 14:23:49;;;;;;;1.77;1.38;;;16.20;95.20;;;;;;4949129;29;20047;-76
2022/11/13 14:26:34;;;;;;;1.75;1.65;;;16.10;95.30;;;;;;4949353;29;20050;-75
2022/11/13 14:29:37;;;;;;;1.70;1.30;;;16.10;95.10;;;;;;4935129;29;20097;-76
2022/11/13 14:32:28;;;;;;;3.03;2.72;;;16.10;95.20;;;;;;4949498;29;20063;-76
2022/11/13 14:35:21;;;;;;;3.80;2.05;;;16.00;95.60;;;;;;4948888;29;20051;-75